sensor_id;sensor_type;location;lat;lon;timestamp;P1;durP1;ratioP1;P2;durP2;ratioP2
74551;SDS011;63025;55.472;38.432;2023-05-18T00:02:15;19.48;;;11.90;;
74551;SDS011;63025;55.472;38.432;2023-05-18T00:04:41;18.27;;;12.10;;
74551;SDS011;63025;55.472;38.432;2023-05-18T00:07:08;17.60;;;11.52;;
74551;SDS011;63025;55.472;38.432;2023-05-18T00:09:34;17.05;;;11.55;;
74551;SDS011;63025;55.472;38.432;2023-05-18T00:12:02;17.40;;;11.23;;
74551;SDS011;63025;55.472;38.432;2023-05-18T00:14:29;18.83;;;12.02;;
74551;SDS011;63025;55.472;38.432;2023-05-18T00:16:55;19.40;;;12.13;;
74551;SDS011;63025;55.472;38.432;2023-05-18T00:19:22;20.13;;;12.40;;
74551;SDS011;63025;55.472;38.432;2023-05-18T00:21:50;22.05;;;13.48;;
74551;SDS011;63025;55.472;38.432;2023-05-18T00:24:17;21.83;;;12.48;;
74551;SDS011;63025;55.472;38.432;2023-05-18T00:26:44;21.48;;;12.05;;
74551;SDS011;63025;55.472;38.432;2023-05-18T00:29:11;17.15;;;11.90;;
74551;SDS011;63025;55.472;38.432;2023-05-18T00:31:38;18.80;;;11.90;;
74551;SDS011;63025;55.472;38.432;2023-05-18T00:34:09;18.98;;;12.55;;
74551;SDS011;63025;55.472;38.432;2023-05-18T00:36:37;19.05;;;12.30;;
74551;SDS011;63025;55.472;38.432;2023-05-18T00:39:04;18.80;;;11.68;;
74551;SDS011;63025;55.472;38.432;2023-05-18T00:41:31;20.88;;;12.60;;
74551;SDS011;63025;55.472;38.432;2023-05-18T00:43:58;23.10;;;12.65;;
74551;SDS011;63025;55.472;38.432;2023-05-18T00:46:25;18.55;;;11.80;;
74551;SDS011;63025;55.472;38.432;2023-05-18T00:48:53;19.95;;;12.07;;
74551;SDS011;63025;55.472;38.432;2023-05-18T00:51:21;20.92;;;12.20;;
74551;SDS011;63025;55.472;38.432;2023-05-18T00:53:51;18.08;;;12.13;;
74551;SDS011;63025;55.472;38.432;2023-05-18T00:56:18;16.98;;;11.48;;
74551;SDS011;63025;55.472;38.432;2023-05-18T00:58:44;18.20;;;11.70;;
74551;SDS011;63025;55.472;38.432;2023-05-18T01:01:12;18.42;;;11.73;;
74551;SDS011;63025;55.472;38.432;2023-05-18T01:03:37;18.92;;;12.27;;
74551;SDS011;63025;55.472;38.432;2023-05-18T01:06:04;17.42;;;11.30;;
74551;SDS011;63025;55.472;38.432;2023-05-18T01:08:31;18.48;;;12.38;;
74551;SDS011;63025;55.472;38.432;2023-05-18T01:11:13;17.60;;;11.63;;
74551;SDS011;63025;55.472;38.432;2023-05-18T01:14:05;22.60;;;11.95;;
74551;SDS011;63025;55.472;38.432;2023-05-18T01:16:45;18.50;;;11.60;;
74551;SDS011;63025;55.472;38.432;2023-05-18T01:22:06;16.88;;;11.88;;
74551;SDS011;63025;55.472;38.432;2023-05-18T01:24:42;21.08;;;11.70;;
74551;SDS011;63025;55.472;38.432;2023-05-18T01:27:16;17.40;;;11.80;;
74551;SDS011;63025;55.472;38.432;2023-05-18T01:29:46;17.15;;;11.85;;
74551;SDS011;63025;55.472;38.432;2023-05-18T01:32:17;18.38;;;11.90;;
74551;SDS011;63025;55.472;38.432;2023-05-18T01:34:44;15.95;;;11.02;;
74551;SDS011;63025;55.472;38.432;2023-05-18T01:37:10;18.98;;;12.32;;
74551;SDS011;63025;55.472;38.432;2023-05-18T01:39:36;20.08;;;11.95;;
74551;SDS011;63025;55.472;38.432;2023-05-18T01:42:05;23.77;;;13.18;;
74551;SDS011;63025;55.472;38.432;2023-05-18T01:44:40;19.70;;;11.80;;
74551;SDS011;63025;55.472;38.432;2023-05-18T01:47:13;20.85;;;12.38;;
74551;SDS011;63025;55.472;38.432;2023-05-18T01:49:45;18.90;;;12.27;;
74551;SDS011;63025;55.472;38.432;2023-05-18T01:52:23;23.48;;;13.05;;
74551;SDS011;63025;55.472;38.432;2023-05-18T01:54:57;21.20;;;13.15;;
74551;SDS011;63025;55.472;38.432;2023-05-18T01:57:31;21.23;;;13.75;;
74551;SDS011;63025;55.472;38.432;2023-05-18T01:59:57;24.27;;;14.82;;
74551;SDS011;63025;55.472;38.432;2023-05-18T02:02:25;25.05;;;15.38;;
74551;SDS011;63025;55.472;38.432;2023-05-18T02:04:51;22.00;;;14.63;;
74551;SDS011;63025;55.472;38.432;2023-05-18T02:07:17;26.45;;;14.60;;
74551;SDS011;63025;55.472;38.432;2023-05-18T02:09:44;26.58;;;13.77;;
74551;SDS011;63025;55.472;38.432;2023-05-18T02:12:10;27.20;;;15.25;;
74551;SDS011;63025;55.472;38.432;2023-05-18T02:14:36;24.75;;;13.80;;
74551;SDS011;63025;55.472;38.432;2023-05-18T02:17:02;24.15;;;14.10;;
74551;SDS011;63025;55.472;38.432;2023-05-18T02:19:28;21.48;;;13.63;;
74551;SDS011;63025;55.472;38.432;2023-05-18T02:21:58;24.95;;;13.40;;
74551;SDS011;63025;55.472;38.432;2023-05-18T02:24:24;20.25;;;12.80;;
74551;SDS011;63025;55.472;38.432;2023-05-18T02:26:50;24.35;;;15.07;;
74551;SDS011;63025;55.472;38.432;2023-05-18T02:29:18;23.92;;;14.13;;
74551;SDS011;63025;55.472;38.432;2023-05-18T02:31:44;23.48;;;13.68;;
74551;SDS011;63025;55.472;38.432;2023-05-18T02:34:10;22.05;;;13.50;;
74551;SDS011;63025;55.472;38.432;2023-05-18T02:36:36;22.15;;;13.00;;
74551;SDS011;63025;55.472;38.432;2023-05-18T02:39:05;20.88;;;13.27;;
74551;SDS011;63025;55.472;38.432;2023-05-18T02:41:32;23.02;;;12.95;;
74551;SDS011;63025;55.472;38.432;2023-05-18T02:43:58;22.25;;;12.68;;
74551;SDS011;63025;55.472;38.432;2023-05-18T02:46:25;20.92;;;12.63;;
74551;SDS011;63025;55.472;38.432;2023-05-18T02:48:51;21.80;;;13.13;;
74551;SDS011;63025;55.472;38.432;2023-05-18T02:51:17;21.08;;;13.13;;
74551;SDS011;63025;55.472;38.432;2023-05-18T02:53:43;19.58;;;12.73;;
74551;SDS011;63025;55.472;38.432;2023-05-18T02:56:12;17.63;;;12.35;;
74551;SDS011;63025;55.472;38.432;2023-05-18T02:58:53;19.45;;;12.75;;
74551;SDS011;63025;55.472;38.432;2023-05-18T03:01:28;19.23;;;11.80;;
74551;SDS011;63025;55.472;38.432;2023-05-18T03:03:53;21.58;;;13.05;;
74551;SDS011;63025;55.472;38.432;2023-05-18T03:06:22;21.45;;;13.45;;
74551;SDS011;63025;55.472;38.432;2023-05-18T03:08:51;20.27;;;13.20;;
74551;SDS011;63025;55.472;38.432;2023-05-18T03:11:24;18.83;;;12.13;;
74551;SDS011;63025;55.472;38.432;2023-05-18T03:13:51;22.00;;;12.57;;
74551;SDS011;63025;55.472;38.432;2023-05-18T03:16:17;25.20;;;12.98;;
74551;SDS011;63025;55.472;38.432;2023-05-18T03:18:44;21.60;;;13.15;;
74551;SDS011;63025;55.472;38.432;2023-05-18T03:21:11;18.35;;;12.13;;
74551;SDS011;63025;55.472;38.432;2023-05-18T03:23:38;21.63;;;12.55;;
74551;SDS011;63025;55.472;38.432;2023-05-18T03:26:05;18.60;;;13.25;;
74551;SDS011;63025;55.472;38.432;2023-05-18T03:28:36;24.55;;;12.95;;
74551;SDS011;63025;55.472;38.432;2023-05-18T03:31:03;20.52;;;12.68;;
74551;SDS011;63025;55.472;38.432;2023-05-18T03:33:31;25.25;;;13.93;;
74551;SDS011;63025;55.472;38.432;2023-05-18T03:36:00;18.70;;;12.70;;
74551;SDS011;63025;55.472;38.432;2023-05-18T03:38:26;20.23;;;12.45;;
74551;SDS011;63025;55.472;38.432;2023-05-18T03:40:58;18.90;;;12.13;;
74551;SDS011;63025;55.472;38.432;2023-05-18T03:43:24;21.98;;;12.65;;
74551;SDS011;63025;55.472;38.432;2023-05-18T03:45:51;18.15;;;11.80;;
74551;SDS011;63025;55.472;38.432;2023-05-18T03:48:17;15.98;;;11.68;;
74551;SDS011;63025;55.472;38.432;2023-05-18T03:50:43;20.95;;;11.95;;
74551;SDS011;63025;55.472;38.432;2023-05-18T03:53:10;21.83;;;11.85;;
74551;SDS011;63025;55.472;38.432;2023-05-18T03:55:35;18.27;;;11.40;;
74551;SDS011;63025;55.472;38.432;2023-05-18T03:58:01;17.38;;;11.32;;
74551;SDS011;63025;55.472;38.432;2023-05-18T04:00:27;22.23;;;11.65;;
74551;SDS011;63025;55.472;38.432;2023-05-18T04:02:54;20.88;;;11.50;;
74551;SDS011;63025;55.472;38.432;2023-05-18T04:05:23;19.48;;;11.50;;
74551;SDS011;63025;55.472;38.432;2023-05-18T04:07:50;17.48;;;11.43;;
74551;SDS011;63025;55.472;38.432;2023-05-18T04:10:16;18.40;;;10.95;;
74551;SDS011;63025;55.472;38.432;2023-05-18T04:12:45;16.35;;;10.55;;
74551;SDS011;63025;55.472;38.432;2023-05-18T04:15:11;14.80;;;10.40;;
74551;SDS011;63025;55.472;38.432;2023-05-18T04:17:39;15.85;;;10.23;;
74551;SDS011;63025;55.472;38.432;2023-05-18T04:20:10;18.63;;;11.15;;
74551;SDS011;63025;55.472;38.432;2023-05-18T04:22:40;16.15;;;10.80;;
74551;SDS011;63025;55.472;38.432;2023-05-18T04:25:08;15.00;;;9.63;;
74551;SDS011;63025;55.472;38.432;2023-05-18T04:27:38;15.93;;;10.00;;
74551;SDS011;63025;55.472;38.432;2023-05-18T04:30:04;19.42;;;10.82;;
74551;SDS011;63025;55.472;38.432;2023-05-18T04:32:33;16.25;;;10.32;;
74551;SDS011;63025;55.472;38.432;2023-05-18T04:35:04;17.77;;;10.25;;
74551;SDS011;63025;55.472;38.432;2023-05-18T04:37:32;16.02;;;10.45;;
74551;SDS011;63025;55.472;38.432;2023-05-18T04:39:59;16.67;;;9.25;;
74551;SDS011;63025;55.472;38.432;2023-05-18T04:42:30;15.13;;;9.70;;
74551;SDS011;63025;55.472;38.432;2023-05-18T04:44:55;13.35;;;9.65;;
74551;SDS011;63025;55.472;38.432;2023-05-18T04:47:21;17.13;;;9.07;;
74551;SDS011;63025;55.472;38.432;2023-05-18T04:49:49;14.02;;;9.50;;
74551;SDS011;63025;55.472;38.432;2023-05-18T04:52:17;17.95;;;9.15;;
74551;SDS011;63025;55.472;38.432;2023-05-18T04:54:44;17.27;;;9.32;;
74551;SDS011;63025;55.472;38.432;2023-05-18T04:57:09;15.32;;;9.35;;
74551;SDS011;63025;55.472;38.432;2023-05-18T04:59:38;14.40;;;9.05;;
74551;SDS011;63025;55.472;38.432;2023-05-18T05:02:05;14.27;;;8.57;;
74551;SDS011;63025;55.472;38.432;2023-05-18T05:04:32;17.13;;;8.20;;
74551;SDS011;63025;55.472;38.432;2023-05-18T05:06:58;16.23;;;8.55;;
74551;SDS011;63025;55.472;38.432;2023-05-18T05:09:24;13.18;;;7.43;;
74551;SDS011;63025;55.472;38.432;2023-05-18T05:11:50;11.95;;;8.43;;
74551;SDS011;63025;55.472;38.432;2023-05-18T05:14:16;13.30;;;7.53;;
74551;SDS011;63025;55.472;38.432;2023-05-18T05:16:42;13.82;;;8.15;;
74551;SDS011;63025;55.472;38.432;2023-05-18T05:19:08;11.52;;;7.72;;
74551;SDS011;63025;55.472;38.432;2023-05-18T05:21:34;15.95;;;8.10;;
74551;SDS011;63025;55.472;38.432;2023-05-18T05:24:01;13.77;;;7.70;;
74551;SDS011;63025;55.472;38.432;2023-05-18T05:26:30;12.75;;;7.32;;
74551;SDS011;63025;55.472;38.432;2023-05-18T05:28:56;12.98;;;7.47;;
74551;SDS011;63025;55.472;38.432;2023-05-18T05:31:22;12.75;;;7.40;;
74551;SDS011;63025;55.472;38.432;2023-05-18T05:33:47;9.98;;;7.55;;
74551;SDS011;63025;55.472;38.432;2023-05-18T05:36:13;12.68;;;7.05;;
74551;SDS011;63025;55.472;38.432;2023-05-18T05:38:39;13.85;;;7.80;;
74551;SDS011;63025;55.472;38.432;2023-05-18T05:41:05;15.60;;;7.50;;
74551;SDS011;63025;55.472;38.432;2023-05-18T05:43:32;13.30;;;7.43;;
74551;SDS011;63025;55.472;38.432;2023-05-18T05:45:58;13.65;;;7.78;;
74551;SDS011;63025;55.472;38.432;2023-05-18T05:48:24;19.85;;;7.47;;
74551;SDS011;63025;55.472;38.432;2023-05-18T05:50:50;13.80;;;6.95;;
74551;SDS011;63025;55.472;38.432;2023-05-18T05:53:16;12.43;;;6.78;;
74551;SDS011;63025;55.472;38.432;2023-05-18T05:55:44;10.70;;;7.55;;
74551;SDS011;63025;55.472;38.432;2023-05-18T05:58:16;13.18;;;7.32;;
74551;SDS011;63025;55.472;38.432;2023-05-18T06:00:47;11.30;;;6.72;;
74551;SDS011;63025;55.472;38.432;2023-05-18T06:03:14;11.90;;;6.78;;
74551;SDS011;63025;55.472;38.432;2023-05-18T06:05:43;14.40;;;7.20;;
74551;SDS011;63025;55.472;38.432;2023-05-18T06:08:11;17.00;;;7.25;;
74551;SDS011;63025;55.472;38.432;2023-05-18T06:10:38;13.48;;;6.82;;
74551;SDS011;63025;55.472;38.432;2023-05-18T06:13:05;15.38;;;7.35;;
74551;SDS011;63025;55.472;38.432;2023-05-18T06:15:39;14.77;;;6.95;;
74551;SDS011;63025;55.472;38.432;2023-05-18T06:18:05;11.20;;;6.75;;
74551;SDS011;63025;55.472;38.432;2023-05-18T06:20:31;11.63;;;6.75;;
74551;SDS011;63025;55.472;38.432;2023-05-18T06:22:58;12.98;;;6.43;;
74551;SDS011;63025;55.472;38.432;2023-05-18T06:25:53;10.68;;;6.45;;
74551;SDS011;63025;55.472;38.432;2023-05-18T06:28:32;14.30;;;6.38;;
74551;SDS011;63025;55.472;38.432;2023-05-18T06:31:06;10.77;;;6.22;;
74551;SDS011;63025;55.472;38.432;2023-05-18T06:33:44;12.43;;;6.03;;
74551;SDS011;63025;55.472;38.432;2023-05-18T06:36:10;10.60;;;5.97;;
74551;SDS011;63025;55.472;38.432;2023-05-18T06:38:36;12.35;;;6.80;;
74551;SDS011;63025;55.472;38.432;2023-05-18T06:41:02;9.82;;;5.60;;
74551;SDS011;63025;55.472;38.432;2023-05-18T06:43:28;12.85;;;6.50;;
74551;SDS011;63025;55.472;38.432;2023-05-18T06:46:19;11.50;;;6.00;;
74551;SDS011;63025;55.472;38.432;2023-05-18T06:48:48;10.10;;;5.77;;
74551;SDS011;63025;55.472;38.432;2023-05-18T06:51:14;9.20;;;5.82;;
74551;SDS011;63025;55.472;38.432;2023-05-18T06:53:42;8.73;;;5.47;;
74551;SDS011;63025;55.472;38.432;2023-05-18T06:56:08;8.38;;;5.70;;
74551;SDS011;63025;55.472;38.432;2023-05-18T06:58:39;10.63;;;5.70;;
74551;SDS011;63025;55.472;38.432;2023-05-18T07:01:06;13.90;;;5.68;;
74551;SDS011;63025;55.472;38.432;2023-05-18T07:03:33;9.68;;;5.70;;
74551;SDS011;63025;55.472;38.432;2023-05-18T07:05:58;8.95;;;5.38;;
74551;SDS011;63025;55.472;38.432;2023-05-18T07:08:24;10.25;;;5.50;;
74551;SDS011;63025;55.472;38.432;2023-05-18T07:10:50;12.55;;;5.43;;
74551;SDS011;63025;55.472;38.432;2023-05-18T07:13:17;9.10;;;5.20;;
74551;SDS011;63025;55.472;38.432;2023-05-18T07:15:43;8.88;;;5.32;;
74551;SDS011;63025;55.472;38.432;2023-05-18T07:18:09;9.55;;;5.38;;
74551;SDS011;63025;55.472;38.432;2023-05-18T07:20:35;9.48;;;5.07;;
74551;SDS011;63025;55.472;38.432;2023-05-18T07:23:00;7.03;;;5.00;;
74551;SDS011;63025;55.472;38.432;2023-05-18T07:25:26;12.05;;;5.45;;
74551;SDS011;63025;55.472;38.432;2023-05-18T07:27:53;8.30;;;5.05;;
74551;SDS011;63025;55.472;38.432;2023-05-18T07:30:19;10.95;;;5.00;;
74551;SDS011;63025;55.472;38.432;2023-05-18T07:32:46;11.27;;;5.50;;
74551;SDS011;63025;55.472;38.432;2023-05-18T07:35:12;8.50;;;5.57;;
74551;SDS011;63025;55.472;38.432;2023-05-18T07:37:38;7.68;;;5.45;;
74551;SDS011;63025;55.472;38.432;2023-05-18T07:40:04;8.55;;;5.28;;
74551;SDS011;63025;55.472;38.432;2023-05-18T07:42:30;11.93;;;5.28;;
74551;SDS011;63025;55.472;38.432;2023-05-18T07:44:58;8.35;;;5.13;;
74551;SDS011;63025;55.472;38.432;2023-05-18T07:47:24;10.50;;;5.07;;
74551;SDS011;63025;55.472;38.432;2023-05-18T07:49:50;10.82;;;5.20;;
74551;SDS011;63025;55.472;38.432;2023-05-18T07:52:15;7.63;;;5.13;;
74551;SDS011;63025;55.472;38.432;2023-05-18T07:54:41;7.40;;;4.85;;
74551;SDS011;63025;55.472;38.432;2023-05-18T07:57:07;9.70;;;5.53;;
74551;SDS011;63025;55.472;38.432;2023-05-18T07:59:33;8.10;;;5.82;;
74551;SDS011;63025;55.472;38.432;2023-05-18T08:01:59;8.50;;;5.60;;
74551;SDS011;63025;55.472;38.432;2023-05-18T08:04:27;6.43;;;5.20;;
74551;SDS011;63025;55.472;38.432;2023-05-18T08:06:52;9.18;;;5.50;;
74551;SDS011;63025;55.472;38.432;2023-05-18T08:09:19;8.02;;;5.47;;
74551;SDS011;63025;55.472;38.432;2023-05-18T08:11:49;12.27;;;5.35;;
74551;SDS011;63025;55.472;38.432;2023-05-18T08:14:15;9.57;;;5.40;;
74551;SDS011;63025;55.472;38.432;2023-05-18T08:16:41;6.20;;;4.75;;
74551;SDS011;63025;55.472;38.432;2023-05-18T08:19:07;8.95;;;4.78;;
74551;SDS011;63025;55.472;38.432;2023-05-18T08:21:33;9.52;;;6.72;;
74551;SDS011;63025;55.472;38.432;2023-05-18T08:23:59;6.82;;;4.95;;
74551;SDS011;63025;55.472;38.432;2023-05-18T08:26:25;5.90;;;5.00;;
74551;SDS011;63025;55.472;38.432;2023-05-18T08:28:51;8.38;;;5.35;;
74551;SDS011;63025;55.472;38.432;2023-05-18T08:31:17;10.80;;;5.70;;
74551;SDS011;63025;55.472;38.432;2023-05-18T08:33:43;7.75;;;5.18;;
74551;SDS011;63025;55.472;38.432;2023-05-18T08:36:09;8.18;;;5.20;;
74551;SDS011;63025;55.472;38.432;2023-05-18T08:38:35;6.72;;;5.18;;
74551;SDS011;63025;55.472;38.432;2023-05-18T08:41:07;7.72;;;5.38;;
74551;SDS011;63025;55.472;38.432;2023-05-18T08:43:44;7.18;;;5.10;;
74551;SDS011;63025;55.472;38.432;2023-05-18T08:46:34;6.43;;;4.78;;
74551;SDS011;63025;55.472;38.432;2023-05-18T08:49:00;8.40;;;4.85;;
74551;SDS011;63025;55.472;38.432;2023-05-18T08:51:31;7.78;;;5.40;;
74551;SDS011;63025;55.472;38.432;2023-05-18T08:53:59;8.13;;;5.10;;
74551;SDS011;63025;55.472;38.432;2023-05-18T08:56:25;8.20;;;5.47;;
74551;SDS011;63025;55.472;38.432;2023-05-18T08:58:54;6.93;;;5.00;;
74551;SDS011;63025;55.472;38.432;2023-05-18T09:01:21;8.38;;;5.50;;
74551;SDS011;63025;55.472;38.432;2023-05-18T09:03:54;8.77;;;5.45;;
74551;SDS011;63025;55.472;38.432;2023-05-18T09:06:22;8.00;;;5.43;;
74551;SDS011;63025;55.472;38.432;2023-05-18T09:08:53;6.93;;;4.90;;
74551;SDS011;63025;55.472;38.432;2023-05-18T09:11:23;10.07;;;5.22;;
74551;SDS011;63025;55.472;38.432;2023-05-18T09:13:50;8.93;;;5.25;;
74551;SDS011;63025;55.472;38.432;2023-05-18T09:16:16;8.13;;;5.43;;
74551;SDS011;63025;55.472;38.432;2023-05-18T09:18:43;7.50;;;5.22;;
74551;SDS011;63025;55.472;38.432;2023-05-18T09:21:09;7.85;;;4.80;;
74551;SDS011;63025;55.472;38.432;2023-05-18T09:23:37;8.93;;;4.88;;
74551;SDS011;63025;55.472;38.432;2023-05-18T09:26:04;8.35;;;5.00;;
74551;SDS011;63025;55.472;38.432;2023-05-18T09:33:33;9.43;;;5.18;;
74551;SDS011;63025;55.472;38.432;2023-05-18T09:36:00;7.13;;;5.13;;
74551;SDS011;63025;55.472;38.432;2023-05-18T09:38:28;9.07;;;5.13;;
74551;SDS011;63025;55.472;38.432;2023-05-18T09:40:54;7.15;;;4.90;;
74551;SDS011;63025;55.472;38.432;2023-05-18T09:43:20;7.25;;;5.00;;
74551;SDS011;63025;55.472;38.432;2023-05-18T09:45:49;7.93;;;5.50;;
74551;SDS011;63025;55.472;38.432;2023-05-18T09:48:15;7.47;;;5.03;;
74551;SDS011;63025;55.472;38.432;2023-05-18T09:50:44;6.82;;;5.22;;
74551;SDS011;63025;55.472;38.432;2023-05-18T09:53:11;7.97;;;5.53;;
74551;SDS011;63025;55.472;38.432;2023-05-18T09:55:47;7.75;;;5.45;;
74551;SDS011;63025;55.472;38.432;2023-05-18T09:58:14;6.95;;;5.03;;
74551;SDS011;63025;55.472;38.432;2023-05-18T10:00:46;7.53;;;5.10;;
74551;SDS011;63025;55.472;38.432;2023-05-18T10:03:19;5.88;;;5.05;;
74551;SDS011;63025;55.472;38.432;2023-05-18T10:05:46;6.95;;;5.35;;
74551;SDS011;63025;55.472;38.432;2023-05-18T10:08:13;7.97;;;4.88;;
74551;SDS011;63025;55.472;38.432;2023-05-18T10:10:44;7.15;;;4.53;;
74551;SDS011;63025;55.472;38.432;2023-05-18T10:13:15;6.38;;;5.00;;
74551;SDS011;63025;55.472;38.432;2023-05-18T10:15:48;9.55;;;5.05;;
74551;SDS011;63025;55.472;38.432;2023-05-18T10:18:19;6.30;;;5.47;;
74551;SDS011;63025;55.472;38.432;2023-05-18T10:20:49;5.75;;;4.80;;
74551;SDS011;63025;55.472;38.432;2023-05-18T10:23:19;7.88;;;5.35;;
74551;SDS011;63025;55.472;38.432;2023-05-18T10:25:46;9.00;;;5.10;;
74551;SDS011;63025;55.472;38.432;2023-05-18T10:28:16;8.35;;;4.95;;
74551;SDS011;63025;55.472;38.432;2023-05-18T10:30:51;7.85;;;4.57;;
74551;SDS011;63025;55.472;38.432;2023-05-18T10:33:22;7.15;;;5.15;;
74551;SDS011;63025;55.472;38.432;2023-05-18T10:35:50;7.18;;;5.00;;
74551;SDS011;63025;55.472;38.432;2023-05-18T10:38:20;7.78;;;5.35;;
74551;SDS011;63025;55.472;38.432;2023-05-18T10:40:51;7.28;;;5.32;;
74551;SDS011;63025;55.472;38.432;2023-05-18T10:43:22;5.55;;;4.85;;
74551;SDS011;63025;55.472;38.432;2023-05-18T10:45:58;8.05;;;5.22;;
74551;SDS011;63025;55.472;38.432;2023-05-18T10:48:25;8.80;;;5.13;;
74551;SDS011;63025;55.472;38.432;2023-05-18T10:50:53;5.88;;;4.72;;
74551;SDS011;63025;55.472;38.432;2023-05-18T10:53:22;7.15;;;4.50;;
74551;SDS011;63025;55.472;38.432;2023-05-18T10:55:51;8.10;;;4.97;;
74551;SDS011;63025;55.472;38.432;2023-05-18T10:58:18;7.55;;;5.22;;
74551;SDS011;63025;55.472;38.432;2023-05-18T11:00:47;10.05;;;5.05;;
74551;SDS011;63025;55.472;38.432;2023-05-18T11:03:16;7.53;;;5.10;;
74551;SDS011;63025;55.472;38.432;2023-05-18T11:05:42;6.95;;;4.85;;
74551;SDS011;63025;55.472;38.432;2023-05-18T11:08:08;6.05;;;4.40;;
74551;SDS011;63025;55.472;38.432;2023-05-18T11:10:39;7.05;;;5.25;;
74551;SDS011;63025;55.472;38.432;2023-05-18T11:13:06;6.57;;;5.00;;
74551;SDS011;63025;55.472;38.432;2023-05-18T11:21:19;11.77;;;5.00;;
74551;SDS011;63025;55.472;38.432;2023-05-18T11:26:46;8.75;;;5.28;;
74551;SDS011;63025;55.472;38.432;2023-05-18T11:29:15;6.50;;;4.68;;
74551;SDS011;63025;55.472;38.432;2023-05-18T11:31:42;6.32;;;5.05;;
74551;SDS011;63025;55.472;38.432;2023-05-18T11:37:48;6.72;;;4.63;;
74551;SDS011;63025;55.472;38.432;2023-05-18T11:40:04;8.15;;;4.80;;
74551;SDS011;63025;55.472;38.432;2023-05-18T11:42:34;5.97;;;4.80;;
74551;SDS011;63025;55.472;38.432;2023-05-18T11:45:06;9.18;;;4.85;;
74551;SDS011;63025;55.472;38.432;2023-05-18T11:47:33;6.30;;;4.88;;
74551;SDS011;63025;55.472;38.432;2023-05-18T11:50:00;5.88;;;4.47;;
74551;SDS011;63025;55.472;38.432;2023-05-18T11:52:27;5.05;;;4.28;;
74551;SDS011;63025;55.472;38.432;2023-05-18T11:54:54;6.88;;;4.53;;
74551;SDS011;63025;55.472;38.432;2023-05-18T11:59:56;8.73;;;4.70;;
74551;SDS011;63025;55.472;38.432;2023-05-18T12:02:24;6.30;;;4.90;;
74551;SDS011;63025;55.472;38.432;2023-05-18T12:04:51;6.05;;;4.80;;
74551;SDS011;63025;55.472;38.432;2023-05-18T12:07:19;5.72;;;5.00;;
74551;SDS011;63025;55.472;38.432;2023-05-18T12:09:46;6.80;;;4.97;;
74551;SDS011;63025;55.472;38.432;2023-05-18T12:12:13;7.00;;;4.75;;
74551;SDS011;63025;55.472;38.432;2023-05-18T12:14:42;6.65;;;4.65;;
74551;SDS011;63025;55.472;38.432;2023-05-18T12:17:09;5.53;;;4.78;;
74551;SDS011;63025;55.472;38.432;2023-05-18T12:19:45;7.40;;;5.25;;
74551;SDS011;63025;55.472;38.432;2023-05-18T12:22:12;7.13;;;4.90;;
74551;SDS011;63025;55.472;38.432;2023-05-18T12:24:38;5.38;;;4.80;;
74551;SDS011;63025;55.472;38.432;2023-05-18T12:27:05;6.68;;;4.80;;
74551;SDS011;63025;55.472;38.432;2023-05-18T12:29:33;6.85;;;4.88;;
74551;SDS011;63025;55.472;38.432;2023-05-18T12:32:05;6.80;;;4.47;;
74551;SDS011;63025;55.472;38.432;2023-05-18T12:34:33;5.43;;;4.57;;
74551;SDS011;63025;55.472;38.432;2023-05-18T12:36:58;11.30;;;5.07;;
74551;SDS011;63025;55.472;38.432;2023-05-18T12:39:24;6.40;;;4.28;;
74551;SDS011;63025;55.472;38.432;2023-05-18T12:41:50;6.90;;;4.82;;
74551;SDS011;63025;55.472;38.432;2023-05-18T12:44:16;5.47;;;4.60;;
74551;SDS011;63025;55.472;38.432;2023-05-18T12:46:41;6.15;;;4.72;;
74551;SDS011;63025;55.472;38.432;2023-05-18T12:49:07;6.82;;;4.60;;
74551;SDS011;63025;55.472;38.432;2023-05-18T12:51:34;6.57;;;4.78;;
74551;SDS011;63025;55.472;38.432;2023-05-18T12:54:01;10.57;;;8.07;;
74551;SDS011;63025;55.472;38.432;2023-05-18T12:56:47;10.23;;;6.13;;
74551;SDS011;63025;55.472;38.432;2023-05-18T12:59:19;8.25;;;6.20;;
74551;SDS011;63025;55.472;38.432;2023-05-18T13:01:45;12.05;;;7.22;;
74551;SDS011;63025;55.472;38.432;2023-05-18T13:04:10;7.25;;;5.22;;
74551;SDS011;63025;55.472;38.432;2023-05-18T13:06:37;6.45;;;4.72;;
74551;SDS011;63025;55.472;38.432;2023-05-18T13:09:06;8.38;;;5.80;;
74551;SDS011;63025;55.472;38.432;2023-05-18T13:11:35;5.57;;;4.70;;
74551;SDS011;63025;55.472;38.432;2023-05-18T13:14:05;8.77;;;4.97;;
74551;SDS011;63025;55.472;38.432;2023-05-18T13:16:33;9.77;;;4.78;;
74551;SDS011;63025;55.472;38.432;2023-05-18T13:19:03;8.45;;;4.50;;
74551;SDS011;63025;55.472;38.432;2023-05-18T13:21:31;10.18;;;5.50;;
74551;SDS011;63025;55.472;38.432;2023-05-18T13:23:58;7.95;;;5.60;;
74551;SDS011;63025;55.472;38.432;2023-05-18T13:26:25;9.10;;;6.53;;
74551;SDS011;63025;55.472;38.432;2023-05-18T13:28:52;11.85;;;6.32;;
74551;SDS011;63025;55.472;38.432;2023-05-18T13:31:20;11.07;;;5.95;;
74551;SDS011;63025;55.472;38.432;2023-05-18T13:33:47;13.63;;;7.80;;
74551;SDS011;63025;55.472;38.432;2023-05-18T13:36:14;8.85;;;5.53;;
74551;SDS011;63025;55.472;38.432;2023-05-18T13:38:40;6.88;;;4.95;;
74551;SDS011;63025;55.472;38.432;2023-05-18T13:41:08;6.85;;;5.00;;
74551;SDS011;63025;55.472;38.432;2023-05-18T13:43:35;6.18;;;4.88;;
74551;SDS011;63025;55.472;38.432;2023-05-18T13:46:01;7.85;;;5.18;;
74551;SDS011;63025;55.472;38.432;2023-05-18T13:48:27;6.28;;;4.45;;
74551;SDS011;63025;55.472;38.432;2023-05-18T13:50:53;8.18;;;5.03;;
74551;SDS011;63025;55.472;38.432;2023-05-18T13:53:19;7.32;;;5.10;;
74551;SDS011;63025;55.472;38.432;2023-05-18T13:55:45;7.28;;;4.60;;
74551;SDS011;63025;55.472;38.432;2023-05-18T13:58:10;7.15;;;4.60;;
74551;SDS011;63025;55.472;38.432;2023-05-18T14:00:36;6.28;;;4.60;;
74551;SDS011;63025;55.472;38.432;2023-05-18T14:03:02;10.63;;;6.28;;
74551;SDS011;63025;55.472;38.432;2023-05-18T14:05:28;43.53;;;25.00;;
74551;SDS011;63025;55.472;38.432;2023-05-18T14:07:54;87.82;;;51.03;;
74551;SDS011;63025;55.472;38.432;2023-05-18T14:10:20;29.73;;;15.63;;
74551;SDS011;63025;55.472;38.432;2023-05-18T14:12:46;34.70;;;20.20;;
74551;SDS011;63025;55.472;38.432;2023-05-18T14:15:12;11.23;;;6.30;;
74551;SDS011;63025;55.472;38.432;2023-05-18T14:17:38;7.80;;;5.35;;
74551;SDS011;63025;55.472;38.432;2023-05-18T14:20:04;6.38;;;4.65;;
74551;SDS011;63025;55.472;38.432;2023-05-18T14:22:31;7.32;;;4.57;;
74551;SDS011;63025;55.472;38.432;2023-05-18T14:24:57;6.05;;;4.90;;
74551;SDS011;63025;55.472;38.432;2023-05-18T14:27:22;6.80;;;4.93;;
74551;SDS011;63025;55.472;38.432;2023-05-18T14:29:48;6.93;;;4.90;;
74551;SDS011;63025;55.472;38.432;2023-05-18T14:32:14;8.35;;;6.22;;
74551;SDS011;63025;55.472;38.432;2023-05-18T14:34:40;7.38;;;5.07;;
74551;SDS011;63025;55.472;38.432;2023-05-18T14:37:06;8.30;;;5.18;;
74551;SDS011;63025;55.472;38.432;2023-05-18T14:39:32;6.88;;;4.68;;
74551;SDS011;63025;55.472;38.432;2023-05-18T14:41:58;7.55;;;5.70;;
74551;SDS011;63025;55.472;38.432;2023-05-18T14:44:23;8.77;;;6.60;;
74551;SDS011;63025;55.472;38.432;2023-05-18T14:46:49;7.82;;;5.00;;
74551;SDS011;63025;55.472;38.432;2023-05-18T14:49:14;8.50;;;5.10;;
74551;SDS011;63025;55.472;38.432;2023-05-18T14:51:40;7.82;;;4.53;;